createdAt,value
2017-06-24T00:00:35.838Z,1005.51
2017-06-24T00:01:35.747Z,1005.51
2017-06-24T00:02:35.905Z,1005.56
2017-06-24T00:03:35.836Z,1005.52
2017-06-24T00:04:35.796Z,1005.55
2017-06-24T00:05:35.841Z,1005.54
2017-06-24T00:06:35.845Z,1005.59
2017-06-24T00:07:35.821Z,1005.57
2017-06-24T00:08:35.821Z,1005.51
2017-06-24T00:09:35.820Z,1005.54
2017-06-24T00:10:35.830Z,1005.54
2017-06-24T00:11:35.825Z,1005.55
2017-06-24T00:12:35.824Z,1005.54
2017-06-24T00:13:35.824Z,1005.49
2017-06-24T00:14:35.823Z,1005.50
2017-06-24T00:15:35.827Z,1005.52
2017-06-24T00:16:35.829Z,1005.50
2017-06-24T00:17:35.829Z,1005.49
2017-06-24T00:18:35.849Z,1005.48
2017-06-24T00:19:35.805Z,1005.48
2017-06-24T00:20:35.811Z,1005.53
2017-06-24T00:21:35.812Z,1005.54
2017-06-24T00:22:35.812Z,1005.56
2017-06-24T00:23:35.766Z,1005.54
2017-06-24T00:24:35.760Z,1005.51
2017-06-24T00:25:35.841Z,1005.59
2017-06-24T00:26:35.770Z,1005.56
2017-06-24T00:27:35.766Z,1005.58
2017-06-24T00:28:35.784Z,1005.53
2017-06-24T00:29:35.766Z,1005.55
2017-06-24T00:30:35.761Z,1005.51
2017-06-24T00:31:35.861Z,1005.51
2017-06-24T00:32:35.856Z,1005.54
2017-06-24T00:33:35.852Z,1005.51
2017-06-24T00:34:35.863Z,1005.50
2017-06-24T00:35:35.826Z,1005.49
2017-06-24T00:36:35.849Z,1005.52
2017-06-24T00:37:35.842Z,1005.56
2017-06-24T00:38:35.944Z,1005.53
2017-06-24T00:39:35.838Z,1005.55
2017-06-24T00:40:35.842Z,1005.52
2017-06-24T00:41:35.840Z,1005.56
2017-06-24T00:42:35.842Z,1005.53
2017-06-24T00:43:35.839Z,1005.53
2017-06-24T00:44:35.842Z,1005.51
2017-06-24T00:45:35.840Z,1005.50
2017-06-24T00:46:35.842Z,1005.49
2017-06-24T00:47:35.845Z,1005.54
2017-06-24T00:48:35.848Z,1005.51
2017-06-24T00:49:35.846Z,1005.53
2017-06-24T00:50:35.848Z,1005.53
2017-06-24T00:51:35.847Z,1005.52
2017-06-24T00:52:35.852Z,1005.56
2017-06-24T00:53:35.849Z,1005.51
2017-06-24T00:54:35.934Z,1005.59
2017-06-24T00:55:35.843Z,1005.61
2017-06-24T00:56:35.769Z,1005.59
2017-06-24T00:57:35.834Z,1005.57
2017-06-24T00:58:35.837Z,1005.56
2017-06-24T00:59:35.836Z,1005.56
2017-06-24T01:00:35.836Z,1005.57
2017-06-24T01:01:35.839Z,1005.55
2017-06-24T01:02:35.840Z,1005.53
2017-06-24T01:03:35.840Z,1005.57
2017-06-24T01:04:35.844Z,1005.52
2017-06-24T01:05:35.941Z,1005.55
2017-06-24T01:06:35.840Z,1005.49
2017-06-24T01:07:35.867Z,1005.56
2017-06-24T01:08:35.879Z,1005.55
2017-06-24T01:09:35.841Z,1005.52
2017-06-24T01:10:35.874Z,1005.51
2017-06-24T01:11:35.791Z,1005.50
2017-06-24T01:12:35.867Z,1005.54
2017-06-24T01:13:35.795Z,1005.53
2017-06-24T01:14:35.875Z,1005.53
2017-06-24T01:15:35.788Z,1005.51
2017-06-24T01:16:35.796Z,1005.53
2017-06-24T01:17:35.856Z,1005.56
2017-06-24T01:18:35.858Z,1005.48
2017-06-24T01:19:35.867Z,1005.50
2017-06-24T01:20:35.860Z,1005.55
2017-06-24T01:21:35.862Z,1005.52
2017-06-24T01:22:35.873Z,1005.50
2017-06-24T01:23:35.876Z,1005.50
2017-06-24T01:24:35.864Z,1005.52
2017-06-24T01:25:35.866Z,1005.58
2017-06-24T01:26:35.865Z,1005.52
2017-06-24T01:27:35.866Z,1005.53
2017-06-24T01:28:35.867Z,1005.50
2017-06-24T01:29:35.868Z,1005.54
2017-06-24T01:30:35.817Z,1005.56
2017-06-24T01:31:35.867Z,1005.54
2017-06-24T01:32:35.883Z,1005.55
2017-06-24T01:33:35.869Z,1005.45
2017-06-24T01:34:35.871Z,1005.50
2017-06-24T01:35:35.874Z,1005.50
2017-06-24T01:36:35.871Z,1005.54
2017-06-24T01:37:35.898Z,1005.47
2017-06-24T01:38:35.888Z,1005.49
2017-06-24T01:39:35.944Z,1005.48
2017-06-24T01:40:35.897Z,1005.49
2017-06-24T01:41:35.824Z,1005.51
2017-06-24T01:42:35.888Z,1005.52
2017-06-24T01:43:35.904Z,1005.51
2017-06-24T01:44:35.892Z,1005.54
2017-06-24T01:45:35.890Z,1005.58
2017-06-24T01:46:35.857Z,1005.53
2017-06-24T01:47:35.900Z,1005.58
2017-06-24T01:48:35.816Z,1005.54
2017-06-24T01:50:35.830Z,1005.59
2017-06-24T01:51:35.861Z,1005.54
2017-06-24T01:52:35.895Z,1005.58
2017-06-24T01:53:35.906Z,1005.54
2017-06-24T01:54:35.813Z,1005.56
2017-06-24T01:55:35.896Z,1005.51
2017-06-24T01:56:35.892Z,1005.53
2017-06-24T01:57:35.819Z,1005.57
2017-06-24T01:58:35.821Z,1005.55
2017-06-24T01:59:35.813Z,1005.55
2017-06-24T02:00:35.904Z,1005.58
2017-06-24T02:01:35.816Z,1005.56
2017-06-24T02:02:36.068Z,1005.57
2017-06-24T02:03:35.908Z,1005.55
2017-06-24T02:04:35.868Z,1005.53
2017-06-24T02:05:35.905Z,1005.57
2017-06-24T02:06:35.814Z,1005.48
2017-06-24T02:07:35.905Z,1005.47
2017-06-24T02:08:35.919Z,1005.50
2017-06-24T02:09:35.890Z,1005.45
2017-06-24T02:10:35.886Z,1005.47
2017-06-24T02:11:35.890Z,1005.50
2017-06-24T02:12:35.889Z,1005.44
2017-06-24T02:13:35.893Z,1005.47
2017-06-24T02:14:35.889Z,1005.51
2017-06-24T02:15:35.892Z,1005.44
2017-06-24T02:16:35.893Z,1005.49
2017-06-24T02:17:35.890Z,1005.44
2017-06-24T02:18:35.929Z,1005.46
2017-06-24T02:19:35.906Z,1005.39
2017-06-24T02:20:35.911Z,1005.36
2017-06-24T02:21:35.844Z,1005.40
2017-06-24T02:22:35.895Z,1005.38
2017-06-24T02:23:35.906Z,1005.36
2017-06-24T02:24:35.914Z,1005.31
2017-06-24T02:25:35.913Z,1005.31
2017-06-24T02:26:35.884Z,1005.38
2017-06-24T02:27:35.919Z,1005.31
2017-06-24T02:28:35.897Z,1005.30
2017-06-24T02:29:35.901Z,1005.27
2017-06-24T02:30:35.982Z,1005.30
2017-06-24T02:31:35.900Z,1005.26
2017-06-24T02:32:35.900Z,1005.23
2017-06-24T02:33:35.905Z,1005.25
2017-06-24T02:34:35.941Z,1005.25
2017-06-24T02:35:35.906Z,1005.24
2017-06-24T02:36:35.903Z,1005.23
2017-06-24T02:37:35.838Z,1005.26
2017-06-24T02:38:35.844Z,1005.21
2017-06-24T02:39:35.918Z,1005.25
2017-06-24T02:40:35.927Z,1005.21
2017-06-24T02:41:35.931Z,1005.22
2017-06-24T02:42:35.924Z,1005.14
2017-06-24T02:43:35.846Z,1005.18
2017-06-24T02:44:35.938Z,1005.14
2017-06-24T02:45:35.895Z,1005.19
2017-06-24T02:46:35.926Z,1005.18
2017-06-24T02:47:35.913Z,1005.22
2017-06-24T02:48:35.900Z,1005.20
2017-06-24T02:49:35.897Z,1005.19
2017-06-24T02:50:35.900Z,1005.28
2017-06-24T02:51:35.902Z,1005.24
2017-06-24T02:52:35.898Z,1005.27
2017-06-24T02:53:35.899Z,1005.23
2017-06-24T02:54:35.902Z,1005.24
2017-06-24T02:55:35.903Z,1005.25
2017-06-24T02:56:35.902Z,1005.23
2017-06-24T02:57:35.898Z,1005.21
2017-06-24T02:58:35.919Z,1005.27
2017-06-24T02:59:35.918Z,1005.28
2017-06-24T03:00:35.837Z,1005.24
2017-06-24T03:01:35.922Z,1005.24
2017-06-24T03:02:35.918Z,1005.28
2017-06-24T03:03:35.921Z,1005.29
2017-06-24T03:04:35.918Z,1005.27
2017-06-24T03:05:35.919Z,1005.25
2017-06-24T03:06:35.918Z,1005.25
2017-06-24T03:07:35.921Z,1005.27
2017-06-24T03:08:35.908Z,1005.24
2017-06-24T03:09:35.908Z,1005.19
2017-06-24T03:10:35.912Z,1005.20
2017-06-24T03:11:35.911Z,1005.21
2017-06-24T03:12:35.911Z,1005.17
2017-06-24T03:13:35.910Z,1005.17
2017-06-24T03:14:35.999Z,1005.17
2017-06-24T03:15:35.917Z,1005.21
2017-06-24T03:16:35.913Z,1005.25
2017-06-24T03:17:35.911Z,1005.22
2017-06-24T03:18:35.951Z,1005.19
2017-06-24T03:19:35.929Z,1005.18
2017-06-24T03:20:35.943Z,1005.19
2017-06-24T03:21:35.907Z,1005.15
2017-06-24T03:22:35.935Z,1005.18
2017-06-24T03:23:35.959Z,1005.18
2017-06-24T03:24:35.862Z,1005.18
2017-06-24T03:25:35.910Z,1005.18
2017-06-24T03:26:35.871Z,1005.22
2017-06-24T03:27:35.943Z,1005.21
2017-06-24T03:28:35.936Z,1005.22
2017-06-24T03:29:35.933Z,1005.21
2017-06-24T03:30:35.934Z,1005.21
2017-06-24T03:31:35.936Z,1005.24
2017-06-24T03:32:35.942Z,1005.21
2017-06-24T03:33:35.935Z,1005.15
2017-06-24T03:34:35.937Z,1005.21
2017-06-24T03:35:35.932Z,1005.24
2017-06-24T03:36:35.934Z,1005.17
2017-06-24T03:37:35.939Z,1005.18
2017-06-24T03:38:35.944Z,1005.17
2017-06-24T03:39:35.953Z,1005.19
2017-06-24T03:40:35.868Z,1005.22
2017-06-24T03:41:35.938Z,1005.18
2017-06-24T03:42:35.959Z,1005.24
2017-06-24T03:43:35.879Z,1005.20
2017-06-24T03:44:35.957Z,1005.22
2017-06-24T03:45:35.918Z,1005.29
2017-06-24T03:46:35.955Z,1005.30
2017-06-24T03:47:35.879Z,1005.25
2017-06-24T03:48:35.936Z,1005.24
2017-06-24T03:49:35.959Z,1005.25
2017-06-24T03:50:35.879Z,1005.21
2017-06-24T03:51:35.951Z,1005.19
2017-06-24T03:52:35.878Z,1005.22
2017-06-24T03:53:35.967Z,1005.20
2017-06-24T03:54:35.945Z,1005.18
2017-06-24T03:55:35.966Z,1005.15
2017-06-24T03:56:35.956Z,1005.13
2017-06-24T03:57:35.884Z,1005.14
2017-06-24T03:58:35.965Z,1005.14
2017-06-24T03:59:35.948Z,1005.14
2017-06-24T04:00:35.941Z,1005.17
2017-06-24T04:01:35.971Z,1005.14
2017-06-24T04:02:35.965Z,1005.16
2017-06-24T04:03:35.972Z,1005.17
2017-06-24T04:04:35.945Z,1005.23
2017-06-24T04:05:35.943Z,1005.16
2017-06-24T04:06:35.962Z,1005.21
2017-06-24T04:07:35.971Z,1005.21
2017-06-24T04:08:35.963Z,1005.26
2017-06-24T04:09:35.969Z,1005.22
2017-06-24T04:10:35.880Z,1005.27
2017-06-24T04:11:35.948Z,1005.19
2017-06-24T04:12:35.945Z,1005.23
2017-06-24T04:13:35.967Z,1005.23
2017-06-24T04:14:35.956Z,1005.22
2017-06-24T04:15:35.934Z,1005.21
2017-06-24T04:16:35.894Z,1005.28
2017-06-24T04:17:35.982Z,1005.25
2017-06-24T04:18:35.951Z,1005.27
2017-06-24T04:19:35.948Z,1005.27
2017-06-24T04:20:36.049Z,1005.26
2017-06-24T04:21:35.951Z,1005.25
2017-06-24T04:22:35.979Z,1005.27
2017-06-24T04:23:35.950Z,1005.27
2017-06-24T04:24:35.951Z,1005.26
2017-06-24T04:25:35.952Z,1005.22
2017-06-24T04:26:35.949Z,1005.25
2017-06-24T04:27:35.952Z,1005.28
2017-06-24T04:28:35.981Z,1005.26
2017-06-24T04:29:35.917Z,1005.25
2017-06-24T04:30:35.989Z,1005.24
2017-06-24T04:31:35.942Z,1005.21
2017-06-24T04:32:35.983Z,1005.26
2017-06-24T04:33:35.949Z,1005.23
2017-06-24T04:34:35.908Z,1005.23
2017-06-24T04:35:35.991Z,1005.22
2017-06-24T04:36:35.987Z,1005.19
2017-06-24T04:37:35.987Z,1005.21
2017-06-24T04:38:35.899Z,1005.22
2017-06-24T04:39:35.962Z,1005.25
2017-06-24T04:40:35.904Z,1005.21
2017-06-24T04:41:35.907Z,1005.24
2017-06-24T04:42:35.966Z,1005.26
2017-06-24T04:43:35.903Z,1005.24
2017-06-24T04:44:35.994Z,1005.28
2017-06-24T04:45:35.971Z,1005.25
2017-06-24T04:46:35.996Z,1005.26
2017-06-24T04:47:35.902Z,1005.27
2017-06-24T04:48:35.951Z,1005.25
2017-06-24T04:49:35.963Z,1005.21
2017-06-24T04:50:35.947Z,1005.24
2017-06-24T04:51:35.990Z,1005.29
2017-06-24T04:52:35.910Z,1005.28
2017-06-24T04:53:36.048Z,1005.25
2017-06-24T04:54:35.913Z,1005.22
2017-06-24T04:55:35.978Z,1005.26
2017-06-24T04:56:35.920Z,1005.22
2017-06-24T04:57:35.907Z,1005.24
2017-06-24T04:58:35.917Z,1005.19
2017-06-24T04:59:35.913Z,1005.16
2017-06-24T05:00:35.906Z,1005.21
2017-06-24T05:01:35.911Z,1005.22
2017-06-24T05:02:36.014Z,1005.18
2017-06-24T05:03:35.912Z,1005.22
2017-06-24T05:04:35.913Z,1005.14
2017-06-24T05:05:35.993Z,1005.17
2017-06-24T05:06:35.981Z,1005.19
2017-06-24T05:07:36.004Z,1005.10
2017-06-24T05:08:36.056Z,1005.17
2017-06-24T05:09:35.918Z,1005.18
2017-06-24T05:10:36.059Z,1005.21
2017-06-24T05:11:35.966Z,1005.18
2017-06-24T05:12:35.961Z,1005.21
2017-06-24T05:13:35.967Z,1005.22
2017-06-24T05:14:35.968Z,1005.20
2017-06-24T05:15:36.010Z,1005.16
2017-06-24T05:16:36.008Z,1005.18
2017-06-24T05:17:36.008Z,1005.22
2017-06-24T05:18:36.011Z,1005.22
2017-06-24T05:19:35.932Z,1005.17
2017-06-24T05:20:36.010Z,1005.13
2017-06-24T05:21:36.009Z,1005.08
2017-06-24T05:22:35.988Z,1005.03
2017-06-24T05:23:36.017Z,1005.04
2017-06-24T05:24:36.011Z,1005.02
2017-06-24T05:25:35.974Z,1004.97
2017-06-24T05:26:35.936Z,1005.10
2017-06-24T05:27:36.024Z,1005.01
2017-06-24T05:28:35.935Z,1005.07
2017-06-24T05:29:35.990Z,1005.10
2017-06-24T05:30:35.985Z,1005.07
2017-06-24T05:31:35.987Z,1005.07
2017-06-24T05:32:35.988Z,1005.06
2017-06-24T05:33:35.985Z,1005.14
2017-06-24T05:34:35.988Z,1005.12
2017-06-24T05:35:35.989Z,1005.16
2017-06-24T05:36:35.987Z,1005.02
2017-06-24T05:37:35.986Z,1005.06
2017-06-24T05:38:35.990Z,1005.06
2017-06-24T05:39:36.023Z,1005.06
2017-06-24T05:40:36.018Z,1005.10
2017-06-24T05:41:36.035Z,1005.08
2017-06-24T05:42:35.982Z,1005.10
2017-06-24T05:43:35.984Z,1005.14
2017-06-24T05:44:36.024Z,1005.11
2017-06-24T05:45:35.987Z,1005.10
2017-06-24T05:46:35.947Z,1005.04
2017-06-24T05:47:35.939Z,1004.99
2017-06-24T05:48:36.025Z,1005.06
2017-06-24T05:49:36.025Z,1005.08
2017-06-24T05:50:36.024Z,1005.04
2017-06-24T05:51:36.022Z,1005.04
2017-06-24T05:52:35.943Z,1005.01
2017-06-24T05:53:35.952Z,1005.04
2017-06-24T05:54:36.007Z,1005.04
2017-06-24T05:55:35.937Z,1004.98
2017-06-24T05:56:36.029Z,1004.96
2017-06-24T05:57:36.036Z,1004.98
2017-06-24T05:58:35.937Z,1004.95
2017-06-24T05:59:36.020Z,1004.96
2017-06-24T06:00:36.015Z,1004.98
2017-06-24T06:01:36.017Z,1004.93
2017-06-24T06:02:36.018Z,1004.92
2017-06-24T06:03:36.021Z,1004.95
2017-06-24T06:04:36.027Z,1004.94
2017-06-24T06:05:36.019Z,1004.96
2017-06-24T06:06:36.128Z,1004.91
2017-06-24T06:07:36.021Z,1004.90
2017-06-24T06:08:36.021Z,1004.88
2017-06-24T06:09:36.008Z,1004.91
2017-06-24T06:10:36.008Z,1004.94
2017-06-24T06:11:36.009Z,1004.93
2017-06-24T06:12:36.011Z,1004.87
2017-06-24T06:13:36.023Z,1004.87
2017-06-24T06:14:36.010Z,1004.89
2017-06-24T06:15:36.015Z,1004.88
2017-06-24T06:16:36.109Z,1004.92
2017-06-24T06:17:36.016Z,1004.92
2017-06-24T06:18:36.010Z,1004.89
2017-06-24T06:19:35.960Z,1004.89
2017-06-24T06:20:36.050Z,1004.94
2017-06-24T06:21:36.022Z,1004.94
2017-06-24T06:22:36.038Z,1004.93
2017-06-24T06:23:36.055Z,1004.97
2017-06-24T06:24:35.958Z,1004.91
2017-06-24T06:25:35.967Z,1004.86
2017-06-24T06:26:36.046Z,1004.86
2017-06-24T06:27:35.968Z,1004.89
2017-06-24T06:28:35.962Z,1004.91
2017-06-24T06:29:36.009Z,1004.92
2017-06-24T06:30:36.013Z,1004.92
2017-06-24T06:31:36.052Z,1004.92
2017-06-24T06:32:35.973Z,1004.96
2017-06-24T06:33:35.972Z,1004.95
2017-06-24T06:34:36.052Z,1004.99
2017-06-24T06:35:36.056Z,1005.02
2017-06-24T06:36:35.961Z,1004.93
2017-06-24T06:37:36.055Z,1004.99
2017-06-24T06:38:36.051Z,1004.97
2017-06-24T06:39:35.972Z,1004.97
2017-06-24T06:40:36.032Z,1005.00
2017-06-24T06:41:35.974Z,1004.97
2017-06-24T06:42:36.030Z,1004.96
2017-06-24T06:43:36.055Z,1004.96
2017-06-24T06:44:35.977Z,1004.96
2017-06-24T06:45:35.970Z,1004.99
2017-06-24T06:46:36.067Z,1004.97
2017-06-24T06:47:36.000Z,1004.96
2017-06-24T06:48:35.974Z,1004.92
2017-06-24T06:49:36.028Z,1005.00
2017-06-24T06:50:36.028Z,1005.01
2017-06-24T06:51:36.031Z,1004.97
2017-06-24T06:52:36.028Z,1005.00
2017-06-24T06:53:36.030Z,1005.03
2017-06-24T06:54:36.030Z,1005.04
2017-06-24T06:55:36.033Z,1005.01
2017-06-24T06:56:36.035Z,1005.01
2017-06-24T06:57:36.031Z,1005.00
2017-06-24T06:58:36.034Z,1005.05
2017-06-24T06:59:35.982Z,1005.02
2017-06-24T07:00:36.070Z,1005.06
2017-06-24T07:01:36.078Z,1005.04
2017-06-24T07:02:36.024Z,1005.06
2017-06-24T07:03:36.060Z,1005.05
2017-06-24T07:04:35.981Z,1005.04
2017-06-24T07:05:36.009Z,1005.05
2017-06-24T07:06:35.990Z,1005.04
2017-06-24T07:07:36.012Z,1005.00
2017-06-24T07:08:36.071Z,1005.05
2017-06-24T07:09:36.049Z,1005.06
2017-06-24T07:10:36.055Z,1005.06
2017-06-24T07:11:36.048Z,1005.01
2017-06-24T07:12:36.143Z,1005.02
2017-06-24T07:13:36.051Z,1005.05
2017-06-24T07:14:35.968Z,1004.98
2017-06-24T07:15:36.054Z,1004.99
2017-06-24T07:16:36.056Z,1005.01
2017-06-24T07:17:36.054Z,1005.01
2017-06-24T07:18:36.051Z,1004.94
2017-06-24T07:19:36.055Z,1004.98
2017-06-24T07:20:36.053Z,1004.98
2017-06-24T07:21:36.059Z,1004.96
2017-06-24T07:22:36.058Z,1005.01
2017-06-24T07:23:36.053Z,1005.00
2017-06-24T07:24:36.060Z,1005.00
2017-06-24T07:25:36.059Z,1005.01
2017-06-24T07:26:36.061Z,1005.00
2017-06-24T07:27:36.061Z,1005.02
2017-06-24T07:28:36.061Z,1005.03
2017-06-24T07:29:35.992Z,1005.02
2017-06-24T07:30:36.091Z,1004.99
2017-06-24T07:31:36.085Z,1005.02
2017-06-24T07:32:35.999Z,1005.00
2017-06-24T07:33:36.084Z,1005.04
2017-06-24T07:34:36.084Z,1005.02
2017-06-24T07:35:35.992Z,1005.03
2017-06-24T07:36:36.095Z,1005.01
2017-06-24T07:37:35.998Z,1005.04
2017-06-24T07:38:36.066Z,1005.01
2017-06-24T07:39:35.966Z,1005.05
2017-06-24T07:40:36.001Z,1005.07
2017-06-24T07:41:36.040Z,1005.11
2017-06-24T07:42:36.034Z,1005.05
2017-06-24T07:43:35.996Z,1005.06
2017-06-24T07:44:36.097Z,1005.09
2017-06-24T07:45:35.987Z,1005.04
2017-06-24T07:46:35.998Z,1004.99
2017-06-24T07:47:35.990Z,1005.02
2017-06-24T07:48:36.046Z,1005.02
2017-06-24T07:49:36.102Z,1005.00
2017-06-24T07:50:36.101Z,1005.02
2017-06-24T07:51:36.090Z,1005.06
2017-06-24T07:52:36.099Z,1005.04
2017-06-24T07:53:36.084Z,1005.10
2017-06-24T07:54:36.093Z,1005.08
2017-06-24T07:55:36.052Z,1005.12
2017-06-24T07:56:36.056Z,1005.06
2017-06-24T07:57:36.097Z,1005.12
2017-06-24T07:58:36.102Z,1005.12
2017-06-24T07:59:36.009Z,1005.09
2017-06-24T08:00:36.055Z,1005.04
2017-06-24T08:01:36.091Z,1005.09
2017-06-24T08:02:36.100Z,1005.04
2017-06-24T08:03:36.061Z,1005.04
2017-06-24T08:04:36.015Z,1005.09
2017-06-24T08:05:36.014Z,1005.07
2017-06-24T08:06:36.106Z,1005.00
2017-06-24T08:07:36.063Z,1005.03
2017-06-24T08:08:36.019Z,1005.00
2017-06-24T08:09:36.115Z,1005.04
2017-06-24T08:10:36.104Z,1005.01
2017-06-24T08:11:36.106Z,1005.08
2017-06-24T08:12:36.083Z,1005.05
2017-06-24T08:13:36.093Z,1005.08
2017-06-24T08:14:36.098Z,1005.09
2017-06-24T08:15:36.103Z,1005.11
2017-06-24T08:16:36.098Z,1005.03
2017-06-24T08:17:36.111Z,1005.02
2017-06-24T08:18:36.106Z,1005.05
2017-06-24T08:19:36.092Z,1005.07
2017-06-24T08:20:36.093Z,1005.07
2017-06-24T08:21:36.102Z,1005.15
2017-06-24T08:22:36.106Z,1005.07
2017-06-24T08:23:36.092Z,1005.03
2017-06-24T08:24:36.095Z,1005.09
2017-06-24T08:25:36.097Z,1005.11
2017-06-24T08:26:36.096Z,1005.11
2017-06-24T08:27:36.097Z,1005.08
2017-06-24T08:28:36.097Z,1005.10
2017-06-24T08:29:36.116Z,1005.08
2017-06-24T08:30:36.034Z,1005.05
2017-06-24T08:31:36.099Z,1005.12
2017-06-24T08:32:36.098Z,1005.05
2017-06-24T08:33:36.121Z,1005.03
2017-06-24T08:34:36.121Z,1004.96
2017-06-24T08:35:36.128Z,1005.00
2017-06-24T08:36:36.028Z,1005.01
2017-06-24T08:37:36.034Z,1005.10
2017-06-24T08:38:36.127Z,1005.02
2017-06-24T08:39:36.122Z,1005.01
2017-06-24T08:40:36.041Z,1004.96
2017-06-24T08:41:36.132Z,1005.03
2017-06-24T08:42:36.029Z,1005.03
2017-06-24T08:43:36.041Z,1004.97
2017-06-24T08:44:36.118Z,1005.06
2017-06-24T08:45:36.125Z,1005.01
2017-06-24T08:46:36.031Z,1005.05
2017-06-24T08:47:36.132Z,1005.05
2017-06-24T08:48:36.125Z,1005.00
2017-06-24T08:49:36.109Z,1005.05
2017-06-24T08:50:36.108Z,1005.03
2017-06-24T08:51:36.109Z,1005.02
2017-06-24T08:52:36.111Z,1004.96
2017-06-24T08:53:36.108Z,1004.98
2017-06-24T08:54:36.114Z,1004.98
2017-06-24T08:55:36.108Z,1004.94
2017-06-24T08:56:36.104Z,1004.95
2017-06-24T08:57:36.114Z,1004.87
2017-06-24T08:58:36.111Z,1004.87
2017-06-24T08:59:36.115Z,1004.83
2017-06-24T09:00:36.089Z,1004.87
2017-06-24T09:01:36.131Z,1004.81
2017-06-24T09:02:36.108Z,1004.82
2017-06-24T09:03:36.053Z,1004.80
2017-06-24T09:04:36.045Z,1004.86
2017-06-24T09:05:36.114Z,1004.81
2017-06-24T09:06:36.052Z,1004.80
2017-06-24T09:07:36.046Z,1004.79
2017-06-24T09:08:36.087Z,1004.79
2017-06-24T09:09:36.144Z,1004.79
2017-06-24T09:10:36.117Z,1004.72
2017-06-24T09:11:36.117Z,1004.73
2017-06-24T09:12:36.115Z,1004.77
2017-06-24T09:13:36.117Z,1004.77
2017-06-24T09:14:36.121Z,1004.74
2017-06-24T09:15:36.118Z,1004.72
2017-06-24T09:16:36.149Z,1004.72
2017-06-24T09:17:36.120Z,1004.68
2017-06-24T09:18:36.122Z,1004.76
2017-06-24T09:19:36.119Z,1004.68
2017-06-24T09:20:36.111Z,1004.70
2017-06-24T09:21:36.114Z,1004.70
2017-06-24T09:22:36.111Z,1004.71
2017-06-24T09:23:36.115Z,1004.71
2017-06-24T09:24:36.113Z,1004.74
2017-06-24T09:25:36.115Z,1004.66
2017-06-24T09:26:36.117Z,1004.60
2017-06-24T09:27:36.119Z,1004.63
2017-06-24T09:28:36.117Z,1004.61
2017-06-24T09:29:36.120Z,1004.54
2017-06-24T09:30:36.155Z,1004.64
2017-06-24T09:31:36.056Z,1004.57
2017-06-24T09:32:36.153Z,1004.76
2017-06-24T09:33:36.063Z,1004.63
2017-06-24T09:34:36.057Z,1004.60
2017-06-24T09:35:36.110Z,1004.63
2017-06-24T09:36:36.152Z,1004.63
2017-06-24T09:37:36.113Z,1004.62
2017-06-24T09:38:36.149Z,1004.65
2017-06-24T09:39:36.134Z,1004.59
2017-06-24T09:40:36.121Z,1004.63
2017-06-24T09:41:36.127Z,1004.63
2017-06-24T09:42:36.125Z,1004.60
2017-06-24T09:43:36.128Z,1004.65
2017-06-24T09:44:36.126Z,1004.60
2017-06-24T09:45:36.126Z,1004.58
2017-06-24T09:46:36.126Z,1004.60
2017-06-24T09:47:36.125Z,1004.65
2017-06-24T09:48:36.125Z,1004.71
2017-06-24T09:49:36.128Z,1004.63
2017-06-24T09:50:36.160Z,1004.64
2017-06-24T09:51:36.153Z,1004.67
2017-06-24T09:52:36.075Z,1004.63
2017-06-24T09:53:36.155Z,1004.67
2017-06-24T09:54:36.163Z,1004.65
2017-06-24T09:55:36.160Z,1004.64
2017-06-24T09:56:36.125Z,1004.61
2017-06-24T09:57:36.077Z,1004.62
2017-06-24T09:58:36.155Z,1004.58
2017-06-24T09:59:36.159Z,1004.64
2017-06-24T10:00:36.163Z,1004.56
2017-06-24T10:01:36.146Z,1004.63
2017-06-24T10:02:36.148Z,1004.57
2017-06-24T10:03:36.149Z,1004.55
2017-06-24T10:04:36.148Z,1004.59
2017-06-24T10:05:36.149Z,1004.62
2017-06-24T10:06:36.167Z,1004.57
2017-06-24T10:07:36.144Z,1004.65
2017-06-24T10:08:36.147Z,1004.58
2017-06-24T10:09:36.147Z,1004.69
2017-06-24T10:10:36.086Z,1004.63
2017-06-24T10:11:36.170Z,1004.63
2017-06-24T10:12:36.074Z,1004.53
2017-06-24T10:13:36.091Z,1004.64
2017-06-24T10:14:36.168Z,1004.62
2017-06-24T10:15:36.141Z,1004.58
2017-06-24T10:16:36.080Z,1004.65
2017-06-24T10:17:36.175Z,1004.65
2017-06-24T10:18:36.168Z,1004.69
2017-06-24T10:19:36.178Z,1004.72
2017-06-24T10:20:36.175Z,1004.68
2017-06-24T10:21:36.176Z,1004.67
2017-06-24T10:22:36.092Z,1004.75
2017-06-24T10:23:36.178Z,1004.77
2017-06-24T10:24:36.170Z,1004.77
2017-06-24T10:25:36.096Z,1004.75
2017-06-24T10:26:36.094Z,1004.71
2017-06-24T10:27:36.178Z,1004.64
2017-06-24T10:28:36.089Z,1004.64
2017-06-24T10:29:36.146Z,1004.70
2017-06-24T10:30:36.166Z,1004.73
2017-06-24T10:31:36.162Z,1004.75
2017-06-24T10:32:36.162Z,1004.70
2017-06-24T10:33:36.166Z,1004.64
2017-06-24T10:34:36.164Z,1004.65
2017-06-24T10:35:36.169Z,1004.69
2017-06-24T10:36:36.176Z,1004.68
2017-06-24T10:37:36.153Z,1004.66
2017-06-24T10:38:36.165Z,1004.62
2017-06-24T10:39:36.252Z,1004.60
2017-06-24T10:40:36.154Z,1004.56
2017-06-24T10:41:36.159Z,1004.61
2017-06-24T10:42:36.160Z,1004.59
2017-06-24T10:43:36.185Z,1004.56
2017-06-24T10:44:36.159Z,1004.62
2017-06-24T10:45:36.161Z,1004.61
2017-06-24T10:46:36.162Z,1004.53
2017-06-24T10:47:36.163Z,1004.57
2017-06-24T10:48:36.162Z,1004.58
2017-06-24T10:49:36.165Z,1004.58
2017-06-24T10:50:36.195Z,1004.55
2017-06-24T10:51:36.190Z,1004.58
2017-06-24T10:52:36.257Z,1004.56
2017-06-24T10:53:36.196Z,1004.55
2017-06-24T10:54:36.198Z,1004.58
2017-06-24T10:55:36.199Z,1004.56
2017-06-24T10:56:36.203Z,1004.55
2017-06-24T10:57:36.196Z,1004.52
2017-06-24T10:58:36.116Z,1004.55
2017-06-24T10:59:36.177Z,1004.56
2017-06-24T11:00:36.113Z,1004.55
2017-06-24T11:01:36.113Z,1004.59
2017-06-24T11:02:36.251Z,1004.64
2017-06-24T11:03:36.207Z,1004.64
2017-06-24T11:04:36.200Z,1004.65
2017-06-24T11:05:36.180Z,1004.61
2017-06-24T11:06:36.119Z,1004.68
2017-06-24T11:07:36.117Z,1004.65
2017-06-24T11:08:36.162Z,1004.59
2017-06-24T11:09:36.219Z,1004.57
2017-06-24T11:10:36.190Z,1004.53
2017-06-24T11:11:36.188Z,1004.55
2017-06-24T11:12:36.203Z,1004.62
2017-06-24T11:13:36.189Z,1004.57
2017-06-24T11:14:36.184Z,1004.57
2017-06-24T11:15:36.189Z,1004.59
2017-06-24T11:16:36.188Z,1004.60
2017-06-24T11:17:36.186Z,1004.59
2017-06-24T11:18:36.189Z,1004.61
2017-06-24T11:19:36.189Z,1004.60
2017-06-24T11:20:36.129Z,1004.57
2017-06-24T11:21:36.183Z,1004.56
2017-06-24T11:22:36.173Z,1004.61
2017-06-24T11:23:36.136Z,1004.59
2017-06-24T11:24:36.132Z,1004.56
2017-06-24T11:25:36.134Z,1004.58
2017-06-24T11:26:36.138Z,1004.56
2017-06-24T11:27:36.241Z,1004.46
2017-06-24T11:28:36.130Z,1004.48
2017-06-24T11:29:36.120Z,1004.50
2017-06-24T11:30:36.195Z,1004.54
2017-06-24T11:31:36.197Z,1004.51
2017-06-24T11:32:36.197Z,1004.47
2017-06-24T11:33:36.114Z,1004.42
2017-06-24T11:34:36.199Z,1004.45
2017-06-24T11:35:36.205Z,1004.43
2017-06-24T11:36:36.198Z,1004.44
2017-06-24T11:37:36.202Z,1004.47
2017-06-24T11:38:36.204Z,1004.40
2017-06-24T11:39:36.203Z,1004.36
2017-06-24T11:40:36.203Z,1004.34
2017-06-24T11:41:36.202Z,1004.35
2017-06-24T11:42:36.205Z,1004.32
2017-06-24T11:43:36.252Z,1004.35
2017-06-24T11:44:36.202Z,1004.34
2017-06-24T11:45:36.201Z,1004.37
2017-06-24T11:46:36.205Z,1004.37
2017-06-24T11:47:36.211Z,1004.32
2017-06-24T11:48:36.206Z,1004.34
2017-06-24T11:49:36.205Z,1004.29
2017-06-24T11:50:36.195Z,1004.35
2017-06-24T11:51:36.194Z,1004.33
2017-06-24T11:52:36.194Z,1004.29
2017-06-24T11:53:36.196Z,1004.40
2017-06-24T11:54:36.196Z,1004.21
2017-06-24T11:55:36.199Z,1004.32
2017-06-24T11:56:36.195Z,1004.36
2017-06-24T11:57:36.197Z,1004.36
2017-06-24T11:58:36.201Z,1004.38
2017-06-24T11:59:36.201Z,1004.37
2017-06-24T12:00:36.217Z,1004.34
2017-06-24T12:01:36.216Z,1004.38
2017-06-24T12:02:36.217Z,1004.33
2017-06-24T12:03:36.219Z,1004.33
2017-06-24T12:04:36.217Z,1004.33
2017-06-24T12:05:36.216Z,1004.39
2017-06-24T12:06:36.218Z,1004.34